Terminal Aerodrome Forecast
Issued by NWS Tampa Bay Area, FL

Home | Current Version | Previous Version | Text Only | Print | Product List | Glossary On
Versions: 1 2 3 4 5 6 7 8 9 10 11 12 13 14 15
000
FTUS42 KTBW 012300
TAFFMY
TAF
KFMY 012320Z 0200/0224 VRB04KT P6SM FEW020 SCT250
     FM020800 VRB04KT 6SM BR FEW015 SCT250
     FM021700 31006KT P6SM VCTS SCT035CB SCT100=

USA.gov is the U.S. government's official web portal to all federal, state and local government web resources and services.